createdAt,value
2023-01-03T00:03:17.168Z,101956.72
2023-01-03T00:08:08.895Z,102002.69
2023-01-03T00:13:00.543Z,102028.69
2023-01-03T00:17:52.864Z,102026.44
2023-01-03T00:22:45.839Z,101980.00
2023-01-03T00:27:37.396Z,102032.97
2023-01-03T00:32:29.664Z,102041.94
2023-01-03T00:37:21.296Z,101916.44
2023-01-03T00:42:13.806Z,102033.63
2023-01-03T00:47:05.372Z,101991.69
2023-01-03T00:51:57.243Z,101999.66
2023-01-03T00:56:50.094Z,102050.22
2023-01-03T01:01:47.845Z,102007.50
2023-01-03T01:06:42.907Z,101991.94
2023-01-03T01:11:35.134Z,102012.16
2023-01-03T01:16:32.168Z,102015.47
2023-01-03T01:21:27.493Z,102024.09
2023-01-03T01:26:22.376Z,102071.59
2023-01-03T01:31:16.800Z,102075.03
2023-01-03T01:36:10.596Z,102070.66
2023-01-03T01:41:03.971Z,102022.66
2023-01-03T01:45:55.672Z,102045.13
2023-01-03T01:50:52.536Z,102052.28
2023-01-03T01:55:49.925Z,102064.06
2023-01-03T02:00:43.900Z,102112.38
2023-01-03T02:05:38.342Z,102115.56
2023-01-03T02:10:48.399Z,102122.19
2023-01-03T02:15:56.214Z,102068.03
2023-01-03T02:20:53.918Z,102122.72
2023-01-03T02:26:13.538Z,102125.75
2023-01-03T02:31:11.160Z,102122.47
2023-01-03T02:36:18.137Z,102100.31
2023-01-03T02:41:34.795Z,102132.34
2023-01-03T02:46:35.385Z,102116.38
2023-01-03T02:52:04.638Z,102107.25
2023-01-03T02:57:04.373Z,102032.75
2023-01-03T03:01:56.604Z,102078.59
2023-01-03T03:07:03.364Z,102134.38
2023-01-03T03:12:16.363Z,102139.19
2023-01-03T03:17:13.490Z,102088.31
2023-01-03T03:22:29.854Z,102140.03
2023-01-03T03:27:43.644Z,102146.34
2023-01-03T03:32:38.443Z,102140.03
2023-01-03T03:37:34.211Z,102149.31
2023-01-03T03:42:59.895Z,102142.19
2023-01-03T03:47:59.240Z,102058.72
2023-01-03T03:52:59.255Z,102138.56
2023-01-03T03:57:56.037Z,102139.59
2023-01-03T04:02:50.092Z,102064.34
2023-01-03T04:07:41.992Z,102137.66
2023-01-03T04:12:33.779Z,102135.22
2023-01-03T04:17:25.304Z,102126.94
2023-01-03T04:22:16.844Z,102090.84
2023-01-03T04:27:08.636Z,102084.47
2023-01-03T04:32:01.887Z,102128.50
2023-01-03T04:36:53.536Z,102136.31
2023-01-03T04:41:45.158Z,102132.66
2023-01-03T04:46:39.293Z,102029.00
2023-01-03T04:51:31.749Z,102111.66
2023-01-03T04:56:42.707Z,102119.53
2023-01-03T05:01:34.545Z,102080.94
2023-01-03T05:06:29.222Z,102045.97
2023-01-03T05:11:20.918Z,102113.13
2023-01-03T05:16:14.452Z,102137.22
2023-01-03T05:21:35.863Z,102055.16
2023-01-03T05:26:27.459Z,102111.94
2023-01-03T05:31:19.966Z,102095.47
2023-01-03T05:36:12.002Z,102106.13
2023-01-03T05:41:04.597Z,102126.34
2023-01-03T05:45:56.177Z,102076.81
2023-01-03T05:50:49.882Z,102051.50
2023-01-03T05:55:41.618Z,102126.09
2023-01-03T06:00:34.410Z,102130.28
2023-01-03T06:05:26.229Z,101985.91
2023-01-03T06:10:18.931Z,102139.50
2023-01-03T06:15:10.693Z,102140.06
2023-01-03T06:20:02.343Z,102142.41
2023-01-03T06:24:53.914Z,102054.88
2023-01-03T06:29:45.509Z,102141.06
2023-01-03T06:34:37.945Z,102074.19
2023-01-03T06:39:29.627Z,102155.69
2023-01-03T06:44:21.158Z,102153.88
2023-01-03T06:49:34.393Z,102127.53
2023-01-03T06:54:29.144Z,102139.03
2023-01-03T06:59:21.130Z,102144.56
2023-01-03T07:04:13.362Z,102097.72
2023-01-03T07:09:05.076Z,102091.91
2023-01-03T07:13:59.728Z,102155.34
2023-01-03T07:18:55.368Z,102104.72
2023-01-03T07:23:47.303Z,102094.19
2023-01-03T07:28:39.985Z,102109.81
2023-01-03T07:33:32.272Z,102089.94
2023-01-03T07:38:23.803Z,102162.09
2023-01-03T07:43:34.935Z,102164.16
2023-01-03T07:48:26.565Z,102186.03
2023-01-03T07:53:18.237Z,102003.44
2023-01-03T07:58:10.444Z,102184.44
2023-01-03T08:03:02.172Z,102143.13
2023-01-03T08:07:54.300Z,102186.28
2023-01-03T08:13:04.473Z,102168.72
2023-01-03T08:17:56.088Z,102137.19
2023-01-03T08:22:48.484Z,102187.16
2023-01-03T08:27:43.904Z,102131.03
2023-01-03T08:32:38.945Z,102126.31
2023-01-03T08:37:30.523Z,102195.22
2023-01-03T08:42:23.582Z,102198.06
2023-01-03T08:47:16.225Z,102163.00
2023-01-03T08:52:08.815Z,102071.16
2023-01-03T08:57:00.612Z,102197.09
2023-01-03T09:01:53.043Z,102171.31
2023-01-03T09:06:44.797Z,102212.66
2023-01-03T09:11:36.506Z,102142.41
2023-01-03T09:16:28.360Z,101977.19
2023-01-03T09:21:20.857Z,102178.34
2023-01-03T09:26:12.437Z,102198.81
2023-01-03T09:31:05.642Z,102197.75
2023-01-03T09:35:57.510Z,102167.25
2023-01-03T09:41:02.904Z,102127.66
2023-01-03T09:45:58.265Z,102152.06
2023-01-03T09:51:17.126Z,102143.53
2023-01-03T09:56:20.971Z,102190.66
2023-01-03T10:01:50.288Z,102205.22
2023-01-03T10:06:55.001Z,102200.47
2023-01-03T10:11:59.125Z,102099.84
2023-01-03T10:17:02.287Z,102162.47
2023-01-03T10:22:03.521Z,102207.72
2023-01-03T10:27:03.464Z,102197.94
2023-01-03T10:32:09.366Z,102183.03
2023-01-03T10:37:02.277Z,102167.53
2023-01-03T10:41:58.466Z,102152.94
2023-01-03T10:46:53.927Z,102177.00
2023-01-03T10:52:02.821Z,102179.97
2023-01-03T10:56:54.432Z,102090.72
2023-01-03T11:02:18.926Z,102115.38
2023-01-03T11:07:13.739Z,102159.72
2023-01-03T11:12:17.773Z,102156.22
2023-01-03T11:17:12.676Z,102152.25
2023-01-03T11:22:06.988Z,102147.13
2023-01-03T11:27:36.320Z,102157.03
2023-01-03T11:33:00.148Z,102158.88
2023-01-03T11:38:09.185Z,102152.44
2023-01-03T11:43:35.696Z,102048.78
2023-01-03T11:48:40.230Z,102160.06
2023-01-03T11:53:49.777Z,102088.50
2023-01-03T11:59:19.030Z,102136.22
2023-01-03T12:04:42.359Z,102137.59
2023-01-03T12:09:51.610Z,102062.84
2023-01-03T12:14:56.955Z,102094.69
2023-01-03T12:19:59.578Z,102054.31
2023-01-03T12:25:16.378Z,102098.75
2023-01-03T12:30:34.079Z,102118.81
2023-01-03T12:35:28.700Z,102105.06
2023-01-03T12:40:36.768Z,102098.38
2023-01-03T12:45:48.636Z,102104.22
2023-01-03T12:50:51.947Z,102026.31
2023-01-03T12:55:51.730Z,102056.31
2023-01-03T13:01:00.426Z,102091.13
2023-01-03T13:06:02.119Z,102090.78
2023-01-03T13:10:59.243Z,102059.13
2023-01-03T13:15:50.909Z,102030.84
2023-01-03T13:20:49.660Z,102048.03
2023-01-03T13:25:42.588Z,101967.63
2023-01-03T13:30:36.707Z,102084.41
2023-01-03T13:35:37.065Z,102058.03
2023-01-03T13:40:59.819Z,101994.31
2023-01-03T13:45:42.756Z,102068.38
2023-01-03T13:50:36.753Z,102083.44
2023-01-03T13:55:54.492Z,102073.00
2023-01-03T14:00:46.968Z,102024.59
2023-01-03T14:05:56.843Z,102074.00
2023-01-03T14:11:00.094Z,102083.78
2023-01-03T14:16:13.467Z,102058.09
2023-01-03T14:21:14.543Z,102064.38
2023-01-03T14:26:15.807Z,102093.03
2023-01-03T14:31:34.700Z,102011.16
2023-01-03T14:36:27.491Z,102068.88
2023-01-03T14:41:36.047Z,102059.47
2023-01-03T14:46:30.069Z,102066.22
2023-01-03T14:51:21.694Z,102104.41
2023-01-03T14:56:13.707Z,102058.81
2023-01-03T15:01:10.338Z,102020.25
2023-01-03T15:06:02.332Z,102061.00
2023-01-03T15:11:03.613Z,102066.09
2023-01-03T15:16:01.166Z,102097.50
2023-01-03T15:20:55.207Z,102103.44
2023-01-03T15:25:46.983Z,102092.31
2023-01-03T15:30:47.913Z,101948.97
2023-01-03T15:35:42.338Z,102128.16
2023-01-03T15:40:34.069Z,102094.56
2023-01-03T15:45:28.679Z,102130.25
2023-01-03T15:50:20.696Z,102002.69
2023-01-03T15:55:13.907Z,102119.34
2023-01-03T16:00:09.072Z,102019.78
2023-01-03T16:05:00.887Z,102109.50
2023-01-03T16:09:52.529Z,102031.03
2023-01-03T16:14:48.567Z,102089.63
2023-01-03T16:19:40.385Z,102127.53
2023-01-03T16:24:34.910Z,102098.69
2023-01-03T16:29:27.854Z,102047.41
2023-01-03T16:34:26.385Z,102073.78
2023-01-03T16:39:26.917Z,102033.28
2023-01-03T16:44:18.479Z,102024.72
2023-01-03T16:49:11.082Z,102123.19
2023-01-03T16:54:07.464Z,102037.69
2023-01-03T16:58:59.063Z,101957.28
2023-01-03T17:03:50.795Z,102115.72
2023-01-03T17:08:42.798Z,102121.25
2023-01-03T17:13:40.962Z,102046.59
2023-01-03T17:18:37.296Z,102125.34
2023-01-03T17:23:32.296Z,102100.81
2023-01-03T17:28:24.157Z,102126.53
2023-01-03T17:33:15.741Z,102129.00
2023-01-03T17:38:25.575Z,102134.00
2023-01-03T17:43:23.752Z,102134.63
2023-01-03T17:48:35.095Z,102103.78
2023-01-03T17:53:26.981Z,102126.06
2023-01-03T17:58:36.245Z,102093.97
2023-01-03T18:03:29.037Z,102086.34
2023-01-03T18:08:22.804Z,102135.91
2023-01-03T18:13:26.962Z,102076.28
2023-01-03T18:18:20.617Z,102044.84
2023-01-03T18:23:38.192Z,102087.81
2023-01-03T18:28:30.140Z,102114.38
2023-01-03T18:33:22.559Z,102039.47
2023-01-03T18:38:24.946Z,102109.47
2023-01-03T18:43:19.153Z,101971.25
2023-01-03T18:48:17.124Z,102048.41
2023-01-03T18:53:15.775Z,102034.63
2023-01-03T18:58:16.978Z,101993.16
2023-01-03T19:03:22.217Z,102057.16
2023-01-03T19:08:16.634Z,102081.81
2023-01-03T19:13:21.374Z,101812.69
2023-01-03T19:18:12.954Z,102024.00
2023-01-03T19:23:06.332Z,102051.16
2023-01-03T19:28:01.749Z,102038.63
2023-01-03T19:32:56.153Z,102031.53
2023-01-03T19:37:47.787Z,101778.16
2023-01-03T19:42:48.062Z,101982.41
2023-01-03T19:47:39.747Z,102008.97
2023-01-03T19:52:31.297Z,102002.25
2023-01-03T19:57:30.153Z,101993.44
2023-01-03T20:02:36.282Z,101942.19
2023-01-03T20:07:28.208Z,101925.91
2023-01-03T20:12:26.072Z,101973.69
2023-01-03T20:17:21.283Z,101948.13
2023-01-03T20:22:37.277Z,101921.84
2023-01-03T20:27:24.908Z,102008.88
2023-01-03T20:32:16.515Z,102013.16
2023-01-03T20:37:17.044Z,102005.22
2023-01-03T20:42:24.734Z,101852.28
2023-01-03T20:47:25.019Z,101910.56
2023-01-03T20:52:17.702Z,101970.72
2023-01-03T20:57:21.335Z,101973.97
2023-01-03T21:02:13.160Z,101967.72
2023-01-03T21:07:11.438Z,101899.44
2023-01-03T21:12:03.649Z,101830.16
2023-01-03T21:16:55.240Z,101964.44
2023-01-03T21:21:49.165Z,101967.09
2023-01-03T21:26:42.158Z,101953.38
2023-01-03T21:31:35.538Z,101956.50
2023-01-03T21:36:32.785Z,101954.56
2023-01-03T21:41:28.272Z,101794.28
2023-01-03T21:46:21.091Z,101906.88
2023-01-03T21:51:14.209Z,101935.22
2023-01-03T21:56:12.038Z,101860.16
2023-01-03T22:01:16.282Z,101933.38
2023-01-03T22:06:10.855Z,101697.44
2023-01-03T22:11:03.318Z,101885.25
2023-01-03T22:15:55.507Z,101667.81
2023-01-03T22:20:47.270Z,101895.25
2023-01-03T22:25:38.894Z,101832.59
2023-01-03T22:30:30.520Z,101839.09
2023-01-03T22:35:22.474Z,101794.59
2023-01-03T22:40:17.681Z,101900.94
2023-01-03T22:45:10.461Z,101793.03
2023-01-03T22:50:07.590Z,101861.25
2023-01-03T22:54:59.245Z,101858.31
2023-01-03T22:59:50.960Z,101832.16
2023-01-03T23:04:42.695Z,101775.06
2023-01-03T23:09:34.341Z,101865.50
2023-01-03T23:14:27.225Z,101861.47
2023-01-03T23:19:21.625Z,101849.41
2023-01-03T23:24:15.755Z,101777.00
2023-01-03T23:29:09.158Z,101814.34
2023-01-03T23:34:00.836Z,101790.38
2023-01-03T23:38:54.116Z,101791.97
2023-01-03T23:43:46.181Z,101701.22
2023-01-03T23:48:37.888Z,101690.94
2023-01-03T23:53:29.700Z,101747.03
2023-01-03T23:58:22.203Z,101692.19
